createdAt,value
2024-01-20T00:01:08.825Z,14.90
2024-01-20T00:04:01.971Z,17.00
2024-01-20T00:06:54.982Z,15.30
2024-01-20T00:09:51.321Z,16.80
2024-01-20T00:12:45.604Z,15.40
2024-01-20T00:15:40.354Z,16.50
2024-01-20T00:18:33.281Z,16.90
2024-01-20T00:21:26.086Z,23.90
2024-01-20T00:24:18.830Z,15.60
2024-01-20T00:27:11.655Z,19.70
2024-01-20T00:30:04.570Z,17.30
2024-01-20T00:32:57.643Z,17.10
2024-01-20T00:35:50.628Z,15.20
2024-01-20T00:38:43.799Z,14.60
2024-01-20T00:41:36.424Z,13.70
2024-01-20T00:44:29.416Z,14.60
2024-01-20T00:47:22.009Z,14.50
2024-01-20T00:50:14.887Z,15.10
2024-01-20T00:53:07.814Z,13.90
2024-01-20T00:56:00.703Z,15.80
2024-01-20T00:58:53.419Z,14.20
2024-01-20T01:01:46.217Z,14.00
2024-01-20T01:04:39.161Z,13.70
2024-01-20T01:07:31.806Z,16.30
2024-01-20T01:10:26.984Z,16.30
2024-01-20T01:13:19.663Z,14.00
2024-01-20T01:16:12.323Z,15.80
2024-01-20T01:19:05.007Z,13.70
2024-01-20T01:21:57.694Z,13.60
2024-01-20T01:24:50.318Z,15.20
2024-01-20T01:27:43.319Z,12.80
2024-01-20T01:30:36.187Z,14.20
2024-01-20T01:33:29.080Z,16.00
2024-01-20T01:36:22.940Z,13.90
2024-01-20T01:39:16.863Z,13.80
2024-01-20T01:42:09.484Z,12.80
2024-01-20T01:45:02.155Z,14.30
2024-01-20T01:47:55.955Z,14.80
2024-01-20T01:50:48.653Z,15.40
2024-01-20T01:53:41.233Z,13.50
2024-01-20T01:56:33.959Z,13.00
2024-01-20T01:59:26.664Z,15.40
2024-01-20T02:02:19.311Z,14.00
2024-01-20T02:05:12.141Z,16.40
2024-01-20T02:08:06.460Z,16.90
2024-01-20T02:10:59.208Z,19.60
2024-01-20T02:13:52.029Z,26.10
2024-01-20T02:16:44.774Z,37.10
2024-01-20T02:19:40.515Z,33.60
2024-01-20T02:22:35.206Z,45.00
2024-01-20T02:25:28.065Z,39.40
2024-01-20T02:28:20.641Z,51.70
2024-01-20T02:31:13.249Z,47.80
2024-01-20T02:34:05.946Z,50.10
2024-01-20T02:36:58.668Z,51.20
2024-01-20T02:39:51.286Z,51.00
2024-01-20T02:42:43.828Z,51.70
2024-01-20T02:45:36.713Z,61.40
2024-01-20T02:48:29.528Z,50.80
2024-01-20T02:51:22.366Z,60.10
2024-01-20T02:54:15.155Z,50.90
2024-01-20T02:57:08.234Z,61.80
2024-01-20T03:00:01.410Z,66.90
2024-01-20T03:02:54.391Z,58.30
2024-01-20T03:05:47.158Z,67.00
2024-01-20T03:08:39.836Z,79.30
2024-01-20T03:11:32.484Z,63.50
2024-01-20T03:14:25.150Z,67.00
2024-01-20T03:17:17.724Z,56.00
2024-01-20T03:20:12.339Z,80.50
2024-01-20T03:23:05.656Z,58.80
2024-01-20T03:25:58.367Z,60.70
2024-01-20T03:28:53.145Z,43.40
2024-01-20T03:31:45.732Z,43.50
2024-01-20T03:34:38.387Z,41.20
2024-01-20T03:37:31.060Z,44.40
2024-01-20T03:40:23.658Z,44.50
2024-01-20T03:43:16.303Z,48.00
2024-01-20T03:46:08.922Z,49.90
2024-01-20T03:49:01.825Z,46.00
2024-01-20T03:51:54.578Z,45.10
2024-01-20T03:54:47.159Z,45.80
2024-01-20T03:57:39.740Z,54.00
2024-01-20T04:00:32.398Z,48.00
2024-01-20T04:03:25.245Z,50.70
2024-01-20T04:06:17.989Z,64.20
2024-01-20T04:09:10.695Z,55.80
2024-01-20T04:12:03.510Z,52.10
2024-01-20T04:14:56.891Z,52.10
2024-01-20T04:17:49.845Z,50.70
2024-01-20T04:20:44.010Z,50.00
2024-01-20T04:23:36.628Z,54.60
2024-01-20T04:26:29.164Z,56.00
2024-01-20T04:29:21.701Z,52.50
2024-01-20T04:32:14.319Z,49.60
2024-01-20T04:35:10.168Z,64.50
2024-01-20T04:38:02.763Z,55.90
2024-01-20T04:40:55.977Z,55.30
2024-01-20T04:43:48.531Z,55.00
2024-01-20T04:46:42.244Z,57.00
2024-01-20T04:49:34.961Z,53.80
2024-01-20T04:52:27.772Z,70.00
2024-01-20T04:55:20.315Z,64.70
2024-01-20T04:58:13.131Z,65.10
2024-01-20T05:01:06.604Z,69.30
2024-01-20T05:03:59.835Z,60.00
2024-01-20T05:06:52.595Z,62.80
2024-01-20T05:09:45.228Z,64.90
2024-01-20T05:12:37.982Z,70.20
2024-01-20T05:15:31.812Z,61.80
2024-01-20T05:18:24.786Z,55.20
2024-01-20T05:21:17.724Z,62.70
2024-01-20T05:24:11.319Z,66.00
2024-01-20T05:27:04.454Z,69.90
2024-01-20T05:29:57.125Z,67.10
2024-01-20T05:32:50.525Z,64.90
2024-01-20T05:35:43.367Z,59.60
2024-01-20T05:38:36.058Z,64.10
2024-01-20T05:41:28.634Z,73.10
2024-01-20T05:44:21.253Z,83.10
2024-01-20T05:47:15.901Z,75.40
2024-01-20T05:50:10.058Z,78.00
2024-01-20T05:53:02.679Z,76.20
2024-01-20T05:55:55.640Z,73.00
2024-01-20T05:58:48.172Z,70.20
2024-01-20T06:01:40.739Z,75.60
2024-01-20T06:04:33.347Z,75.10
2024-01-20T06:07:25.959Z,73.30
2024-01-20T06:10:19.011Z,77.40
2024-01-20T06:13:11.682Z,75.00
2024-01-20T06:16:04.417Z,69.90
2024-01-20T06:18:57.296Z,76.00
2024-01-20T06:21:50.012Z,79.10
2024-01-20T06:24:43.712Z,75.80
2024-01-20T06:27:36.447Z,76.50
2024-01-20T06:30:29.152Z,69.10
2024-01-20T06:33:21.983Z,72.90
2024-01-20T06:36:14.832Z,68.50
2024-01-20T06:39:07.676Z,69.20
2024-01-20T06:42:00.329Z,72.40
2024-01-20T06:44:53.116Z,71.00
2024-01-20T06:47:45.874Z,67.80
2024-01-20T06:50:44.132Z,66.20
2024-01-20T06:53:36.745Z,70.80
2024-01-20T06:56:29.671Z,73.80
2024-01-20T06:59:25.556Z,87.90
2024-01-20T07:02:18.775Z,90.90
2024-01-20T07:05:12.607Z,88.20
2024-01-20T07:08:06.185Z,75.20
2024-01-20T07:10:58.754Z,74.00
2024-01-20T07:13:51.332Z,77.00
2024-01-20T07:16:43.975Z,69.90
2024-01-20T07:19:36.562Z,62.90
2024-01-20T07:22:29.185Z,63.00
2024-01-20T07:25:21.875Z,60.30
2024-01-20T07:28:14.445Z,58.00
2024-01-20T07:31:08.256Z,49.20
2024-01-20T07:34:01.022Z,47.40
2024-01-20T07:36:53.818Z,41.00
2024-01-20T07:39:48.117Z,32.60
2024-01-20T07:42:42.137Z,35.00
2024-01-20T07:45:35.093Z,37.00
2024-01-20T07:48:28.886Z,45.40
2024-01-20T07:51:22.019Z,44.50
2024-01-20T07:54:15.019Z,37.40
2024-01-20T07:57:07.970Z,31.10
2024-01-20T08:00:01.341Z,41.30
2024-01-20T08:02:54.207Z,40.00
2024-01-20T08:05:47.760Z,36.60
2024-01-20T08:08:40.807Z,36.80
2024-01-20T08:11:35.523Z,38.10
2024-01-20T08:14:28.216Z,33.70
2024-01-20T08:17:21.124Z,36.80
2024-01-20T08:20:14.937Z,40.20
2024-01-20T08:23:07.736Z,33.10
2024-01-20T08:26:00.333Z,35.00
2024-01-20T08:28:53.074Z,44.10
2024-01-20T08:31:45.658Z,42.00
2024-01-20T08:34:38.581Z,36.40
2024-01-20T08:37:32.303Z,41.00
2024-01-20T08:40:24.902Z,35.80
2024-01-20T08:43:18.480Z,37.70
2024-01-20T08:46:12.975Z,36.00
2024-01-20T08:49:05.951Z,40.70
2024-01-20T08:51:58.673Z,34.40
2024-01-20T08:54:52.308Z,29.90
2024-01-20T08:57:44.976Z,31.00
2024-01-20T09:00:37.637Z,31.50
2024-01-20T09:03:30.428Z,28.60
2024-01-20T09:06:23.297Z,28.90
2024-01-20T09:09:16.210Z,32.60
2024-01-20T09:12:10.402Z,25.60
2024-01-20T09:15:03.934Z,27.80
2024-01-20T09:17:56.832Z,32.20
2024-01-20T09:20:49.509Z,23.20
2024-01-20T09:23:44.150Z,28.50
2024-01-20T09:26:36.692Z,31.30
2024-01-20T09:29:29.404Z,26.00
2024-01-20T09:32:21.968Z,28.90
2024-01-20T09:35:14.689Z,29.50
2024-01-20T09:38:07.342Z,31.80
2024-01-20T09:41:00.188Z,29.00
2024-01-20T09:43:52.960Z,37.70
2024-01-20T09:46:45.684Z,33.30
2024-01-20T09:49:39.134Z,38.00
2024-01-20T09:52:33.472Z,33.80
2024-01-20T09:55:28.886Z,37.00
2024-01-20T09:58:22.643Z,36.40
2024-01-20T10:01:15.251Z,37.50
2024-01-20T10:04:08.235Z,36.60
2024-01-20T10:07:01.789Z,37.80
2024-01-20T10:09:54.508Z,34.00
2024-01-20T10:12:50.664Z,39.50
2024-01-20T10:15:43.394Z,37.50
2024-01-20T10:18:36.190Z,40.60
2024-01-20T10:21:29.002Z,42.20
2024-01-20T10:24:24.568Z,39.90
2024-01-20T10:27:21.638Z,39.50
2024-01-20T10:30:17.964Z,41.00
2024-01-20T10:33:12.840Z,37.20
2024-01-20T10:36:08.979Z,35.00
2024-01-20T10:39:02.096Z,39.90
2024-01-20T10:41:54.846Z,46.00
2024-01-20T10:44:50.567Z,45.70
2024-01-20T10:47:45.291Z,47.60
2024-01-20T10:50:38.861Z,54.00
2024-01-20T10:53:32.186Z,45.70
2024-01-20T10:56:25.469Z,47.30
2024-01-20T10:59:19.000Z,55.30
2024-01-20T11:02:12.834Z,48.40
2024-01-20T11:05:18.203Z,47.70
2024-01-20T11:08:11.677Z,51.20
2024-01-20T11:11:04.647Z,53.80
2024-01-20T11:14:00.510Z,54.50
2024-01-20T11:16:53.778Z,53.50
2024-01-20T11:19:46.475Z,49.00
2024-01-20T11:22:42.505Z,54.70
2024-01-20T11:25:36.878Z,53.00
2024-01-20T11:28:33.603Z,57.90
2024-01-20T11:31:28.696Z,58.00
2024-01-20T11:34:21.431Z,55.90
2024-01-20T11:37:14.101Z,53.60
2024-01-20T11:40:09.392Z,52.20
2024-01-20T11:43:09.367Z,54.40
2024-01-20T11:46:03.411Z,51.30
2024-01-20T11:48:56.212Z,63.80
2024-01-20T11:51:49.024Z,56.20
2024-01-20T11:54:41.796Z,52.50
2024-01-20T11:57:34.737Z,55.70
2024-01-20T12:00:27.836Z,60.40
2024-01-20T12:03:20.595Z,62.10
2024-01-20T12:06:17.172Z,52.40
2024-01-20T12:09:09.980Z,53.80
2024-01-20T12:12:02.612Z,58.90
2024-01-20T12:14:55.228Z,56.40
2024-01-20T12:17:48.144Z,56.70
2024-01-20T12:20:41.403Z,67.10
2024-01-20T12:23:34.157Z,71.50
2024-01-20T12:26:26.868Z,72.90
2024-01-20T12:29:20.016Z,66.00
2024-01-20T12:32:15.341Z,68.00
2024-01-20T12:35:09.763Z,66.70
2024-01-20T12:38:04.129Z,69.80
2024-01-20T12:40:56.940Z,71.50
2024-01-20T12:43:50.208Z,77.90
2024-01-20T12:46:42.998Z,77.30
2024-01-20T12:49:35.688Z,75.20
2024-01-20T12:52:28.827Z,63.90
2024-01-20T12:55:22.503Z,74.20
2024-01-20T12:58:15.520Z,71.30
2024-01-20T13:01:09.094Z,69.40
2024-01-20T13:04:02.043Z,78.60
2024-01-20T13:06:55.850Z,72.30
2024-01-20T13:09:49.142Z,72.50
2024-01-20T13:12:41.928Z,81.20
2024-01-20T13:15:34.752Z,75.70
2024-01-20T13:18:32.238Z,73.10
2024-01-20T13:21:24.999Z,74.70
2024-01-20T13:24:17.747Z,80.00
2024-01-20T13:27:10.436Z,81.90
2024-01-20T13:30:03.330Z,94.20
2024-01-20T13:32:56.232Z,87.10
2024-01-20T13:35:49.023Z,86.10
2024-01-20T13:38:41.627Z,80.90
2024-01-20T13:41:35.174Z,82.60
2024-01-20T13:44:27.993Z,85.80
2024-01-20T13:47:20.563Z,91.60
2024-01-20T13:50:13.587Z,93.50
2024-01-20T13:53:06.957Z,90.70
2024-01-20T13:55:59.657Z,100.00
2024-01-20T13:58:52.923Z,107.60
2024-01-20T14:01:45.565Z,109.10
2024-01-20T14:04:38.407Z,119.50
2024-01-20T14:07:31.042Z,105.60
2024-01-20T14:10:24.005Z,109.30
2024-01-20T14:13:16.648Z,125.50
2024-01-20T14:16:09.889Z,123.80
2024-01-20T14:19:08.110Z,116.20
2024-01-20T14:22:01.409Z,128.30
2024-01-20T14:24:53.997Z,127.60
2024-01-20T14:27:46.652Z,108.60
2024-01-20T14:30:42.850Z,116.00
2024-01-20T14:33:36.799Z,135.40
2024-01-20T14:36:29.549Z,130.80
2024-01-20T14:39:23.669Z,130.80
2024-01-20T14:42:16.824Z,144.30
2024-01-20T14:45:11.375Z,149.50
2024-01-20T14:48:06.035Z,144.50
2024-01-20T14:50:58.898Z,141.30
2024-01-20T14:53:51.493Z,144.30
2024-01-20T14:56:44.182Z,138.30
2024-01-20T14:59:36.881Z,142.20
2024-01-20T15:02:29.675Z,150.70
2024-01-20T15:05:22.362Z,157.60
2024-01-20T15:08:14.980Z,144.40
2024-01-20T15:11:07.704Z,145.00
2024-01-20T15:14:01.553Z,145.50
2024-01-20T15:16:54.178Z,150.90
2024-01-20T15:19:46.944Z,160.00
2024-01-20T15:22:39.769Z,145.20
2024-01-20T15:25:32.354Z,152.20
2024-01-20T15:28:25.132Z,138.30
2024-01-20T15:31:17.801Z,158.70
2024-01-20T15:34:10.881Z,146.30
2024-01-20T15:37:03.775Z,155.90
2024-01-20T15:39:56.499Z,161.10
2024-01-20T15:42:51.379Z,147.80
2024-01-20T15:45:44.094Z,152.90
2024-01-20T15:48:37.727Z,140.60
2024-01-20T15:51:30.842Z,152.00
2024-01-20T15:54:23.646Z,140.40
2024-01-20T15:57:16.439Z,129.60
2024-01-20T16:00:11.974Z,137.90
2024-01-20T16:03:05.555Z,120.30
2024-01-20T16:05:58.318Z,120.60
2024-01-20T16:08:53.098Z,121.80
2024-01-20T16:11:50.995Z,115.00
2024-01-20T16:14:43.755Z,110.50
2024-01-20T16:17:37.353Z,114.90
2024-01-20T16:20:31.144Z,104.50
2024-01-20T16:23:23.777Z,114.70
2024-01-20T16:26:17.898Z,135.70
2024-01-20T16:29:11.156Z,125.20
2024-01-20T16:32:03.986Z,119.20
2024-01-20T16:34:56.732Z,113.10
2024-01-20T16:37:49.925Z,110.30
2024-01-20T16:40:42.662Z,123.30
2024-01-20T16:43:35.631Z,105.80
2024-01-20T16:46:28.319Z,110.60
2024-01-20T16:49:21.106Z,111.30
2024-01-20T16:52:14.730Z,91.30
2024-01-20T16:55:14.922Z,107.80
2024-01-20T16:58:08.442Z,111.00
2024-01-20T17:01:01.299Z,103.60
2024-01-20T17:03:54.212Z,100.10
2024-01-20T17:06:47.166Z,104.10
2024-01-20T17:09:43.080Z,117.00
2024-01-20T17:12:35.702Z,124.20
2024-01-20T17:15:28.370Z,113.90
2024-01-20T17:18:21.061Z,120.00
2024-01-20T17:21:17.792Z,109.80
2024-01-20T17:24:10.674Z,88.00
2024-01-20T17:27:03.958Z,87.20
2024-01-20T17:29:57.334Z,104.60
2024-01-20T17:32:50.093Z,104.10
2024-01-20T17:35:42.873Z,101.70
2024-01-20T17:38:35.456Z,93.90
2024-01-20T17:41:28.055Z,92.20
2024-01-20T17:44:21.592Z,102.10
2024-01-20T17:47:14.774Z,93.90
2024-01-20T17:50:09.123Z,88.10
2024-01-20T17:53:02.186Z,91.50
2024-01-20T17:55:54.781Z,83.20
2024-01-20T17:58:47.360Z,71.10
2024-01-20T18:01:40.088Z,80.60
2024-01-20T18:04:33.046Z,83.40
2024-01-20T18:07:27.976Z,80.90
2024-01-20T18:10:20.851Z,80.20
2024-01-20T18:13:14.786Z,91.90
2024-01-20T18:16:09.063Z,85.80
2024-01-20T18:19:02.038Z,76.40
2024-01-20T18:21:54.680Z,85.30
2024-01-20T18:24:47.665Z,70.40
2024-01-20T18:27:41.085Z,86.20
2024-01-20T18:30:33.802Z,69.60
2024-01-20T18:33:26.431Z,67.50
2024-01-20T18:36:19.171Z,61.00
2024-01-20T18:39:11.878Z,66.60
2024-01-20T18:42:04.894Z,69.90
2024-01-20T18:44:57.538Z,68.90
2024-01-20T18:47:50.705Z,77.80
2024-01-20T18:50:44.340Z,81.50
2024-01-20T18:53:38.128Z,73.70
2024-01-20T18:56:31.154Z,76.00
2024-01-20T18:59:23.876Z,68.00
2024-01-20T19:02:16.755Z,73.80
2024-01-20T19:05:09.807Z,78.50
2024-01-20T19:08:02.428Z,78.70
2024-01-20T19:10:54.982Z,75.20
2024-01-20T19:13:47.553Z,75.00
2024-01-20T19:16:40.087Z,71.60
2024-01-20T19:19:34.744Z,64.90
2024-01-20T19:22:28.835Z,52.80
2024-01-20T19:25:21.629Z,59.50
2024-01-20T19:28:14.220Z,59.50
2024-01-20T19:31:07.439Z,55.20
2024-01-20T19:34:00.591Z,59.20
2024-01-20T19:36:53.333Z,61.00
2024-01-20T19:39:47.259Z,65.60
2024-01-20T19:42:40.321Z,67.20
2024-01-20T19:45:33.052Z,72.20
2024-01-20T19:48:25.760Z,69.80
2024-01-20T19:51:18.460Z,61.10
2024-01-20T19:54:12.348Z,69.10
2024-01-20T19:57:05.702Z,70.40
2024-01-20T20:00:01.387Z,83.50
2024-01-20T20:02:59.962Z,74.30
2024-01-20T20:05:52.678Z,75.00
2024-01-20T20:08:45.595Z,76.40
2024-01-20T20:11:38.206Z,87.30
2024-01-20T20:14:30.821Z,75.00
2024-01-20T20:17:24.158Z,74.70
2024-01-20T20:20:16.841Z,75.50
2024-01-20T20:23:10.660Z,76.70
2024-01-20T20:26:03.220Z,93.00
2024-01-20T20:28:55.936Z,82.40
2024-01-20T20:31:49.770Z,94.40
2024-01-20T20:34:42.402Z,95.60
2024-01-20T20:37:37.137Z,90.60
2024-01-20T20:40:29.783Z,102.60
2024-01-20T20:43:22.493Z,113.70
2024-01-20T20:46:15.200Z,121.10
2024-01-20T20:49:09.200Z,123.50
2024-01-20T20:52:01.985Z,86.40
2024-01-20T20:54:54.635Z,143.50
2024-01-20T20:57:47.530Z,103.10
2024-01-20T21:00:40.354Z,94.00
2024-01-20T21:03:33.051Z,116.90
2024-01-20T21:06:26.101Z,105.70
2024-01-20T21:09:18.940Z,77.50
2024-01-20T21:12:12.205Z,109.30
2024-01-20T21:15:07.982Z,90.20
2024-01-20T21:18:00.934Z,94.10
2024-01-20T21:20:53.788Z,99.70
2024-01-20T21:23:48.441Z,94.60
2024-01-20T21:26:42.082Z,102.10
2024-01-20T21:29:35.668Z,90.00
2024-01-20T21:32:29.141Z,162.40
2024-01-20T21:35:23.153Z,103.20
2024-01-20T21:38:15.914Z,91.00
2024-01-20T21:41:09.503Z,74.20
2024-01-20T21:44:04.290Z,128.90
2024-01-20T21:46:57.261Z,100.40
2024-01-20T21:49:50.599Z,114.80
2024-01-20T21:52:43.675Z,118.20
2024-01-20T21:55:36.444Z,84.90
2024-01-20T21:58:29.284Z,95.30
2024-01-20T22:01:23.605Z,74.10
2024-01-20T22:04:16.592Z,107.50
2024-01-20T22:07:11.610Z,74.70
2024-01-20T22:10:05.900Z,92.20
2024-01-20T22:12:58.662Z,92.90
2024-01-20T22:15:52.064Z,97.70
2024-01-20T22:18:44.827Z,90.40
2024-01-20T22:21:40.089Z,96.40
2024-01-20T22:24:32.817Z,105.80
2024-01-20T22:27:25.516Z,74.60
2024-01-20T22:30:18.311Z,87.20
2024-01-20T22:33:11.579Z,73.00
2024-01-20T22:36:04.530Z,99.50
2024-01-20T22:38:58.146Z,84.00
2024-01-20T22:41:50.867Z,87.30
2024-01-20T22:44:43.480Z,72.50
2024-01-20T22:47:37.637Z,96.20
2024-01-20T22:50:31.856Z,84.30
2024-01-20T22:53:28.812Z,139.60
2024-01-20T22:56:22.453Z,87.10
2024-01-20T22:59:15.322Z,83.70
2024-01-20T23:02:10.945Z,93.80
2024-01-20T23:05:03.831Z,96.50
2024-01-20T23:07:57.014Z,80.60
2024-01-20T23:10:50.183Z,90.30
2024-01-20T23:13:42.947Z,90.60
2024-01-20T23:16:36.419Z,86.10
2024-01-20T23:19:29.893Z,93.50
2024-01-20T23:22:22.988Z,83.70
2024-01-20T23:25:16.388Z,106.20
2024-01-20T23:28:09.517Z,83.10
2024-01-20T23:31:02.140Z,94.70
2024-01-20T23:33:54.812Z,71.40
2024-01-20T23:36:47.618Z,91.20
2024-01-20T23:39:40.279Z,119.90
2024-01-20T23:42:32.965Z,83.70
2024-01-20T23:45:27.085Z,67.10
2024-01-20T23:48:21.017Z,129.40
2024-01-20T23:51:14.877Z,279.70
2024-01-20T23:54:07.718Z,93.70
2024-01-20T23:57:02.211Z,156.30
2024-01-20T23:59:54.842Z,101.70
